Time;durP1;ratioP1;P1;durP2;ratioP2;P2;SDS_P1;SDS_P2;PMS_P1;PMS_P2;Temp;Humidity;BMP_temperature;BMP_pressure;BME280_temperature;BME280_humidity;BME280_pressure;Samples;Min_cycle;Max_cycle;Signal;HPM_P1;HPM_P2
2024/04/14 00:00:52;;;;;;;1.30;1.20;;;15.60;99.90;;;;;;5487156;26;20447;-83
2024/04/14 00:03:18;;;;;;;2.20;0.93;;;15.60;99.90;;;;;;5486573;26;20227;-83
2024/04/14 00:05:46;;;;;;;1.37;1.03;;;15.60;99.90;;;;;;5486506;26;20545;-83
2024/04/14 00:08:12;;;;;;;1.13;1.07;;;15.50;99.90;;;;;;5486974;26;20267;-83
2024/04/14 00:10:41;;;;;;;2.73;0.90;;;15.60;99.90;;;;;;5486983;26;20560;-83
2024/04/14 00:13:07;;;;;;;1.17;1.07;;;15.60;99.90;;;;;;5486932;26;20261;-83
2024/04/14 00:15:35;;;;;;;1.00;1.00;;;15.60;99.90;;;;;;5488250;26;20444;-83
2024/04/14 00:18:04;;;;;;;1.10;0.90;;;15.60;99.90;;;;;;5487461;26;20735;-83
2024/04/14 00:20:32;;;;;;;1.90;0.90;;;15.70;99.90;;;;;;5487938;26;20950;-83
2024/04/14 00:22:59;;;;;;;0.83;0.83;;;15.70;99.90;;;;;;5487737;26;20858;-83
2024/04/14 00:25:27;;;;;;;3.50;0.80;;;15.70;99.90;;;;;;5488090;26;20495;-83
2024/04/14 00:27:53;;;;;;;0.70;0.70;;;15.70;99.90;;;;;;5488185;26;20520;-83
2024/04/14 00:30:21;;;;;;;2.10;0.90;;;15.80;99.90;;;;;;5488836;26;20548;-83
2024/04/14 00:32:47;;;;;;;1.27;1.10;;;15.80;99.90;;;;;;5489672;26;20298;-83
2024/04/14 00:35:18;;;;;;;0.87;0.87;;;15.90;99.90;;;;;;5489411;26;20460;-83
2024/04/14 00:37:44;;;;;;;1.67;1.17;;;15.90;99.90;;;;;;5489942;26;20230;-83
2024/04/14 00:40:12;;;;;;;0.80;0.80;;;15.90;99.90;;;;;;5489044;26;20569;-83
2024/04/14 00:42:38;;;;;;;1.37;0.80;;;15.90;99.90;;;;;;5489462;26;20219;-83
2024/04/14 00:45:07;;;;;;;0.80;0.80;;;15.90;99.90;;;;;;5489631;26;20536;-83
2024/04/14 00:47:34;;;;;;;1.70;0.90;;;15.90;99.90;;;;;;5489379;26;20227;-83
2024/04/14 00:50:03;;;;;;;0.80;0.80;;;15.90;99.90;;;;;;5491712;26;20460;-83
2024/04/14 00:52:31;;;;;;;1.20;1.10;;;15.90;99.90;;;;;;5498894;26;20447;-83
2024/04/14 00:55:00;;;;;;;0.70;0.70;;;15.90;99.90;;;;;;5498444;26;20538;-83
2024/04/14 00:57:26;;;;;;;0.70;0.70;;;15.90;99.90;;;;;;5497509;26;20528;-83
2024/04/14 00:59:57;;;;;;;2.93;1.00;;;15.90;99.90;;;;;;5493704;26;20496;-83
2024/04/14 01:02:23;;;;;;;1.13;0.70;;;15.90;99.90;;;;;;5494152;26;20448;-82
2024/04/14 01:04:52;;;;;;;1.00;0.70;;;15.90;99.90;;;;;;5488196;26;20498;-83
2024/04/14 01:07:18;;;;;;;1.33;1.17;;;15.80;99.90;;;;;;5485164;26;20263;-83
2024/04/14 01:09:49;;;;;;;1.90;1.07;;;15.90;99.90;;;;;;5486545;26;20496;-83
2024/04/14 01:12:15;;;;;;;1.00;0.70;;;15.90;99.90;;;;;;5485822;26;21067;-83
2024/04/14 01:14:43;;;;;;;1.20;1.10;;;15.90;99.90;;;;;;5484776;26;20444;-83
2024/04/14 01:17:09;;;;;;;1.20;1.10;;;16.00;99.90;;;;;;5486576;26;21082;-83
2024/04/14 01:19:38;;;;;;;1.20;1.00;;;15.90;99.90;;;;;;5486150;26;20444;-83
2024/04/14 01:22:04;;;;;;;0.83;0.83;;;16.00;99.90;;;;;;5488074;26;20283;-83
2024/04/14 01:24:32;;;;;;;1.23;1.10;;;15.90;99.90;;;;;;5488103;26;20447;-83
2024/04/14 01:27:00;;;;;;;1.27;0.90;;;15.90;99.90;;;;;;5486878;26;20527;-83
2024/04/14 01:29:29;;;;;;;1.47;1.00;;;16.00;99.90;;;;;;5488102;26;20445;-83
2024/04/14 01:31:54;;;;;;;1.27;1.20;;;16.00;99.90;;;;;;5488261;26;20516;-83
2024/04/14 01:34:23;;;;;;;1.13;0.87;;;16.00;99.90;;;;;;5488093;25;20444;-83
2024/04/14 01:36:49;;;;;;;1.23;1.13;;;16.00;99.90;;;;;;5486171;26;20230;-83
2024/04/14 01:39:17;;;;;;;1.60;1.10;;;15.90;99.90;;;;;;5488523;26;20452;-83
2024/04/14 01:41:43;;;;;;;1.50;1.40;;;15.90;99.90;;;;;;5487443;26;20703;-82
2024/04/14 01:44:14;;;;;;;1.10;1.00;;;15.90;99.90;;;;;;5486317;26;20448;-83
2024/04/14 01:46:40;;;;;;;1.50;1.40;;;15.90;99.90;;;;;;5485573;26;20263;-82
2024/04/14 01:49:09;;;;;;;1.87;1.30;;;15.80;99.90;;;;;;5486374;26;20526;-82
2024/04/14 01:51:35;;;;;;;2.40;1.60;;;15.80;99.90;;;;;;5486879;26;20254;-82
2024/04/14 01:54:03;;;;;;;1.83;1.07;;;15.90;99.90;;;;;;5486179;26;20976;-83
2024/04/14 01:56:29;;;;;;;1.47;1.30;;;15.80;99.90;;;;;;5485862;26;20468;-83
2024/04/14 01:58:57;;;;;;;3.03;1.20;;;15.80;99.90;;;;;;5486396;26;20557;-82
2024/04/14 02:01:26;;;;;;;1.50;1.40;;;15.70;99.90;;;;;;5485271;26;20690;-82
2024/04/14 02:03:54;;;;;;;1.30;1.20;;;15.70;99.90;;;;;;5485783;26;20873;-82
2024/04/14 02:06:20;;;;;;;1.67;0.93;;;15.70;99.90;;;;;;5485223;26;20496;-82
2024/04/14 02:08:48;;;;;;;1.50;1.13;;;15.80;99.90;;;;;;5488735;26;20432;-83
2024/04/14 02:11:14;;;;;;;1.50;1.17;;;15.70;99.90;;;;;;5493339;26;20274;-83
2024/04/14 02:13:42;;;;;;;1.23;1.13;;;15.70;99.90;;;;;;5489299;26;20456;-83
2024/04/14 02:16:08;;;;;;;1.67;1.50;;;15.70;99.90;;;;;;5487886;26;20830;-83
2024/04/14 02:18:40;;;;;;;1.27;1.17;;;15.60;99.90;;;;;;5487773;26;20568;-83
2024/04/14 02:21:06;;;;;;;1.03;1.03;;;15.70;99.90;;;;;;5487999;26;20436;-83
2024/04/14 02:23:37;;;;;;;1.37;1.27;;;15.60;99.90;;;;;;5488948;26;20452;-83
2024/04/14 02:26:03;;;;;;;1.30;1.20;;;15.60;99.90;;;;;;5487956;26;20691;-83
2024/04/14 02:28:31;;;;;;;1.43;1.30;;;15.50;99.90;;;;;;5488746;26;21038;-83
2024/04/14 02:30:57;;;;;;;1.73;1.30;;;15.50;99.90;;;;;;5488323;26;20585;-83
2024/04/14 02:33:25;;;;;;;1.00;1.00;;;15.40;99.90;;;;;;5486809;26;20452;-83
2024/04/14 02:35:57;;;;;;;3.10;1.60;;;15.50;99.90;;;;;;5486678;26;20263;-83
2024/04/14 02:38:25;;;;;;;1.50;1.27;;;15.40;99.90;;;;;;5487996;26;20491;-82
2024/04/14 02:40:55;;;;;;;1.93;1.10;;;15.40;99.90;;;;;;5488199;26;21093;-83
2024/04/14 02:43:24;;;;;;;2.10;1.40;;;15.40;99.90;;;;;;5486911;26;20521;-83
2024/04/14 02:45:50;;;;;;;1.50;1.40;;;15.40;99.90;;;;;;5486503;26;20491;-83
2024/04/14 02:48:18;;;;;;;0.90;0.90;;;15.30;99.90;;;;;;5486706;26;20515;-84
2024/04/14 02:50:44;;;;;;;1.90;1.13;;;15.30;99.90;;;;;;5485871;26;20263;-83
2024/04/14 02:53:16;;;;;;;2.07;1.67;;;15.30;99.90;;;;;;5486031;26;20459;-83
2024/04/14 02:55:42;;;;;;;1.47;1.37;;;15.30;99.90;;;;;;5486228;26;20215;-83
2024/04/14 02:58:12;;;;;;;1.80;1.63;;;15.20;99.90;;;;;;5488040;26;20457;-83
2024/04/14 03:00:38;;;;;;;4.10;1.27;;;15.20;99.90;;;;;;5488829;26;20540;-83
2024/04/14 03:03:07;;;;;;;1.53;1.13;;;15.10;99.90;;;;;;5489613;26;20440;-83
2024/04/14 03:05:33;;;;;;;2.63;1.13;;;15.20;99.90;;;;;;5488787;26;20312;-83
2024/04/14 03:08:02;;;;;;;1.40;1.30;;;15.10;99.90;;;;;;5489585;26;20468;-83
2024/04/14 03:10:31;;;;;;;1.07;1.07;;;15.20;99.90;;;;;;5488488;26;20321;-83
2024/04/14 03:12:59;;;;;;;1.37;1.27;;;15.10;99.90;;;;;;5488133;26;20443;-82
2024/04/14 03:15:25;;;;;;;1.60;1.17;;;15.10;99.90;;;;;;5488323;26;21125;-82
2024/04/14 03:17:53;;;;;;;2.00;1.10;;;15.10;99.90;;;;;;5485173;26;20475;-82
2024/04/14 03:20:19;;;;;;;1.40;1.20;;;15.10;99.90;;;;;;5484767;26;20223;-83
2024/04/14 03:22:47;;;;;;;1.60;1.50;;;15.10;99.90;;;;;;5485405;26;20942;-82
2024/04/14 03:25:13;;;;;;;1.20;1.10;;;15.00;99.90;;;;;;5485321;26;20227;-83
2024/04/14 03:27:44;;;;;;;2.80;1.13;;;15.00;99.90;;;;;;5484981;26;20576;-83
2024/04/14 03:30:10;;;;;;;1.33;1.10;;;15.00;99.90;;;;;;5485419;26;20258;-83
2024/04/14 03:32:39;;;;;;;1.50;1.30;;;15.00;99.90;;;;;;5485664;26;20968;-83
2024/04/14 03:35:05;;;;;;;2.40;1.40;;;15.00;99.90;;;;;;5484993;26;20452;-83
2024/04/14 03:37:35;;;;;;;1.30;1.20;;;15.00;99.90;;;;;;5484309;26;21007;-83
2024/04/14 03:40:05;;;;;;;0.90;0.90;;;14.90;99.90;;;;;;5485620;26;20482;-83
2024/04/14 03:42:34;;;;;;;1.40;1.20;;;14.90;99.90;;;;;;5484573;26;20448;-83
2024/04/14 03:45:08;;;;;;;2.17;1.20;;;14.90;99.90;;;;;;5485436;26;20525;-83
2024/04/14 03:47:37;;;;;;;4.03;1.47;;;14.90;99.90;;;;;;5484846;26;20600;-83
2024/04/14 03:50:05;;;;;;;4.30;1.23;;;14.90;99.90;;;;;;5484718;26;20448;-82
2024/04/14 03:52:31;;;;;;;1.73;0.90;;;14.90;99.90;;;;;;5485110;26;20451;-82
2024/04/14 03:55:00;;;;;;;1.47;1.37;;;14.90;99.90;;;;;;5484803;26;20572;-82
2024/04/14 03:57:25;;;;;;;1.47;1.23;;;14.90;99.90;;;;;;5484880;26;20285;-83
2024/04/14 03:59:54;;;;;;;2.70;1.43;;;14.80;99.90;;;;;;5485183;26;20557;-83
2024/04/14 04:02:22;;;;;;;1.07;1.00;;;14.80;99.90;;;;;;5485247;26;20755;-83
2024/04/14 04:04:51;;;;;;;1.87;1.60;;;14.80;99.90;;;;;;5484983;26;20448;-83
2024/04/14 04:07:16;;;;;;;3.63;1.30;;;14.80;99.90;;;;;;5484384;26;21063;-83
2024/04/14 04:09:45;;;;;;;1.53;1.33;;;14.80;99.90;;;;;;5484606;26;20557;-83
2024/04/14 04:12:11;;;;;;;2.57;1.40;;;14.80;99.90;;;;;;5484933;26;20279;-83
2024/04/14 04:14:39;;;;;;;1.50;1.37;;;14.80;99.90;;;;;;5489125;26;20804;-83
2024/04/14 04:17:05;;;;;;;1.40;1.30;;;14.80;99.90;;;;;;5489485;26;20389;-83
2024/04/14 04:19:36;;;;;;;1.87;1.07;;;14.70;99.90;;;;;;5489641;26;20440;-83
2024/04/14 04:22:02;;;;;;;1.20;1.10;;;14.60;99.90;;;;;;5489751;26;20219;-83
2024/04/14 04:24:30;;;;;;;1.47;1.20;;;14.50;99.90;;;;;;5488506;26;20456;-83
2024/04/14 04:26:56;;;;;;;1.70;1.23;;;14.50;99.90;;;;;;5498524;26;20958;-83
2024/04/14 04:29:27;;;;;;;1.23;1.13;;;14.40;99.90;;;;;;5503821;26;20448;-83
2024/04/14 04:31:54;;;;;;;1.90;1.70;;;14.30;99.90;;;;;;5503466;26;20208;-83
2024/04/14 04:34:23;;;;;;;1.83;1.30;;;14.30;99.90;;;;;;5503484;26;20490;-83
2024/04/14 04:36:51;;;;;;;4.77;1.30;;;14.20;99.90;;;;;;5502982;26;20550;-83
2024/04/14 04:39:20;;;;;;;1.20;1.10;;;14.20;99.90;;;;;;5499709;26;20493;-83
2024/04/14 04:41:45;;;;;;;1.53;1.33;;;14.20;99.90;;;;;;5492301;26;20507;-83
2024/04/14 04:44:14;;;;;;;1.70;1.33;;;14.10;99.90;;;;;;5491562;26;20452;-83
2024/04/14 04:46:40;;;;;;;1.00;1.00;;;14.10;99.90;;;;;;5490356;26;20263;-83
2024/04/14 04:49:08;;;;;;;3.43;1.40;;;14.00;99.90;;;;;;5490727;26;20452;-83
2024/04/14 04:51:34;;;;;;;1.37;1.20;;;14.00;99.90;;;;;;5489581;26;20266;-83
2024/04/14 04:54:06;;;;;;;1.40;1.30;;;14.00;99.90;;;;;;5490087;26;20900;-83
2024/04/14 04:56:32;;;;;;;1.93;1.20;;;14.00;99.90;;;;;;5489224;26;20282;-83
2024/04/14 04:59:00;;;;;;;1.37;1.27;;;14.00;99.90;;;;;;5489173;26;20501;-83
2024/04/14 05:01:26;;;;;;;6.03;0.90;;;13.90;99.90;;;;;;5489012;26;20355;-83
2024/04/14 05:03:54;;;;;;;4.03;1.20;;;14.00;99.90;;;;;;5488701;26;20456;-83
2024/04/14 05:06:22;;;;;;;1.20;1.20;;;14.00;99.90;;;;;;5487976;26;20219;-83
2024/04/14 05:08:48;;;;;;;1.30;1.20;;;13.90;99.90;;;;;;5487613;26;20583;-83
2024/04/14 05:11:19;;;;;;;1.03;1.03;;;14.00;99.90;;;;;;5488516;26;20829;-83
2024/04/14 05:13:45;;;;;;;1.10;1.10;;;14.10;99.90;;;;;;5488320;26;20622;-83
2024/04/14 05:16:13;;;;;;;1.17;1.07;;;14.20;99.90;;;;;;5488374;26;20452;-83
2024/04/14 05:18:39;;;;;;;0.93;0.90;;;14.30;99.90;;;;;;5487635;26;20271;-83
2024/04/14 05:21:08;;;;;;;1.90;0.90;;;14.40;99.90;;;;;;5485917;26;20521;-83
2024/04/14 05:23:33;;;;;;;1.17;1.07;;;14.40;99.90;;;;;;5487759;26;20257;-83
2024/04/14 05:26:02;;;;;;;3.13;1.10;;;14.50;99.90;;;;;;5487193;26;20956;-83
2024/04/14 05:28:31;;;;;;;1.00;1.00;;;14.60;99.90;;;;;;5487367;26;20265;-83
2024/04/14 05:30:59;;;;;;;1.53;1.10;;;14.70;99.90;;;;;;5488429;26;20440;-82
2024/04/14 05:33:25;;;;;;;1.33;1.23;;;14.90;99.90;;;;;;5487695;26;20516;-82
2024/04/14 05:35:57;;;;;;;0.97;0.97;;;15.00;99.90;;;;;;5486281;26;20448;-83
2024/04/14 05:38:23;;;;;;;1.93;1.40;;;15.10;99.90;;;;;;5485520;26;20267;-83
2024/04/14 05:40:52;;;;;;;1.30;1.20;;;15.20;99.90;;;;;;5484541;26;20542;-83
2024/04/14 05:43:17;;;;;;;1.47;1.10;;;15.30;99.90;;;;;;5485366;26;20215;-83
2024/04/14 05:45:48;;;;;;;1.10;0.90;;;15.50;99.90;;;;;;5485941;26;20496;-83
2024/04/14 05:48:14;;;;;;;1.30;1.00;;;15.60;99.90;;;;;;5485954;26;20223;-83
2024/04/14 05:50:43;;;;;;;1.10;1.00;;;15.80;99.90;;;;;;5485992;26;20499;-83
2024/04/14 05:53:08;;;;;;;1.10;1.10;;;15.90;99.90;;;;;;5485321;26;20239;-83
2024/04/14 05:55:37;;;;;;;1.10;1.00;;;16.00;99.90;;;;;;5485175;26;20570;-83
2024/04/14 05:58:03;;;;;;;0.93;0.93;;;16.10;99.90;;;;;;5484904;26;20335;-82
2024/04/14 06:00:31;;;;;;;1.57;0.80;;;16.20;99.90;;;;;;5485369;26;20448;-82
2024/04/14 06:02:59;;;;;;;1.20;1.10;;;16.30;99.90;;;;;;5486652;26;20792;-84
2024/04/14 06:05:29;;;;;;;1.40;1.30;;;16.40;99.90;;;;;;5488067;26;20444;-83
2024/04/14 06:07:54;;;;;;;1.50;0.90;;;16.50;99.90;;;;;;5488075;26;21047;-83
2024/04/14 06:10:23;;;;;;;2.33;1.07;;;16.50;99.90;;;;;;5488042;26;20500;-83
2024/04/14 06:12:49;;;;;;;0.80;0.80;;;16.60;99.90;;;;;;5486757;26;20234;-83
2024/04/14 06:15:17;;;;;;;1.30;1.20;;;16.80;99.90;;;;;;5486592;26;20444;-83
2024/04/14 06:17:43;;;;;;;0.70;0.60;;;17.00;99.90;;;;;;5487436;26;20701;-83
2024/04/14 06:20:14;;;;;;;0.80;0.80;;;17.10;99.90;;;;;;5487043;26;20530;-83
2024/04/14 06:22:40;;;;;;;1.30;1.20;;;17.20;99.90;;;;;;5486564;26;20559;-83
2024/04/14 06:25:08;;;;;;;1.67;1.40;;;17.10;99.90;;;;;;5487029;26;20557;-83
2024/04/14 06:27:34;;;;;;;2.57;1.10;;;17.10;99.90;;;;;;5486453;26;20278;-83
2024/04/14 06:30:03;;;;;;;1.37;1.27;;;17.20;99.90;;;;;;5486883;26;20553;-83
2024/04/14 06:32:28;;;;;;;0.90;0.90;;;17.20;99.90;;;;;;5489840;26;20291;-83
2024/04/14 06:34:57;;;;;;;0.97;0.97;;;17.20;99.90;;;;;;5491364;26;20468;-83
2024/04/14 06:37:25;;;;;;;2.30;0.90;;;17.40;99.90;;;;;;5493128;26;20247;-83
2024/04/14 06:39:54;;;;;;;1.10;1.00;;;17.70;99.90;;;;;;5490613;26;20478;-83
2024/04/14 06:42:20;;;;;;;1.20;1.10;;;17.90;99.90;;;;;;5491312;26;20448;-83
2024/04/14 06:44:48;;;;;;;1.30;1.20;;;18.20;99.90;;;;;;5493927;26;20501;-83
2024/04/14 06:47:14;;;;;;;1.17;0.90;;;18.60;99.90;;;;;;5501790;26;20227;-82
2024/04/14 06:49:42;;;;;;;0.90;0.90;;;18.90;99.90;;;;;;5500561;26;20440;-82
2024/04/14 06:52:08;;;;;;;0.97;0.97;;;19.30;99.90;;;;;;5500701;26;20262;-82
2024/04/14 06:54:39;;;;;;;1.40;1.00;;;19.60;99.90;;;;;;5500584;26;20447;-82
2024/04/14 06:57:05;;;;;;;0.93;0.90;;;19.90;99.90;;;;;;5494384;26;20291;-82
2024/04/14 06:59:34;;;;;;;0.80;0.80;;;20.10;99.90;;;;;;5490034;26;20436;-82
2024/04/14 07:02:00;;;;;;;0.83;0.83;;;20.30;99.90;;;;;;5489897;26;20214;-83
2024/04/14 07:04:28;;;;;;;0.80;0.80;;;20.50;99.90;;;;;;5489437;26;20508;-83
2024/04/14 07:06:54;;;;;;;0.70;0.70;;;20.90;99.90;;;;;;5489069;26;20609;-83
2024/04/14 07:09:22;;;;;;;1.70;1.07;;;21.30;99.50;;;;;;5489668;26;20555;-83
2024/04/14 07:11:52;;;;;;;0.90;0.90;;;21.70;99.10;;;;;;5488912;26;20299;-83
2024/04/14 07:14:21;;;;;;;1.10;0.90;;;22.10;99.20;;;;;;5488396;26;20420;-83
2024/04/14 07:16:47;;;;;;;0.80;0.80;;;22.20;98.00;;;;;;5488470;26;20523;-83
2024/04/14 07:19:15;;;;;;;1.07;0.97;;;22.20;97.50;;;;;;5488846;26;20490;-83
2024/04/14 07:21:41;;;;;;;0.90;0.90;;;21.90;97.50;;;;;;5488398;26;21054;-83
2024/04/14 07:24:09;;;;;;;2.80;0.80;;;21.70;98.00;;;;;;5488903;26;20537;-82
2024/04/14 07:26:35;;;;;;;1.50;1.07;;;21.60;98.70;;;;;;5488068;26;20223;-83
2024/04/14 07:29:06;;;;;;;0.70;0.70;;;21.50;98.40;;;;;;5488630;26;20805;-83
2024/04/14 07:31:32;;;;;;;1.80;0.70;;;21.60;98.90;;;;;;5488472;26;20306;-83
2024/04/14 07:34:02;;;;;;;4.13;0.77;;;21.80;98.60;;;;;;5487572;26;21169;-83
2024/04/14 07:36:28;;;;;;;1.20;1.10;;;22.20;98.60;;;;;;5488049;26;20317;-83
2024/04/14 07:38:56;;;;;;;0.80;0.80;;;22.50;97.10;;;;;;5488921;26;20262;-84
2024/04/14 07:41:22;;;;;;;0.80;0.80;;;22.80;97.30;;;;;;5492141;26;20361;-83
2024/04/14 07:43:51;;;;;;;0.63;0.63;;;23.10;96.90;;;;;;5489456;26;20608;-84
2024/04/14 07:46:22;;;;;;;0.93;0.90;;;23.20;96.60;;;;;;5487219;26;20256;-83
2024/04/14 07:48:50;;;;;;;1.20;1.10;;;23.50;96.40;;;;;;5489314;26;20702;-83
2024/04/14 07:51:16;;;;;;;0.77;0.77;;;23.60;96.40;;;;;;5489476;26;20255;-83
2024/04/14 07:53:44;;;;;;;0.80;0.73;;;23.80;96.10;;;;;;5487825;26;20214;-83
2024/04/14 07:56:10;;;;;;;1.42;0.80;;;24.10;96.10;;;;;;5486353;26;20683;-83
2024/04/14 07:58:38;;;;;;;0.90;0.80;;;24.50;94.80;;;;;;5487450;26;20287;-83
2024/04/14 08:01:04;;;;;;;1.27;1.00;;;24.80;94.40;;;;;;5491399;26;20308;-83
2024/04/14 08:03:35;;;;;;;1.08;0.95;;;25.10;94.20;;;;;;5490875;26;20218;-83
2024/04/14 08:06:03;;;;;;;0.90;0.90;;;25.20;93.40;;;;;;5491954;26;20186;-82
2024/04/14 08:08:31;;;;;;;0.63;0.63;;;25.30;92.90;;;;;;5490653;26;20278;-83
2024/04/14 08:10:57;;;;;;;2.17;0.90;;;25.40;92.60;;;;;;5490386;26;20675;-83
2024/04/14 08:13:25;;;;;;;1.00;0.90;;;25.30;92.90;;;;;;5490105;26;20214;-83
2024/04/14 08:15:51;;;;;;;2.03;0.82;;;25.30;92.70;;;;;;5490483;26;20357;-83
2024/04/14 08:18:23;;;;;;;0.70;0.70;;;25.30;92.90;;;;;;5489944;26;20268;-83
2024/04/14 08:20:58;;;;;;;1.75;1.00;;;25.30;92.30;;;;;;5489138;26;20218;-83
2024/04/14 08:23:27;;;;;;;0.90;0.90;;;25.20;92.70;;;;;;5490211;26;20225;-83
2024/04/14 08:25:53;;;;;;;0.90;0.90;;;25.00;92.60;;;;;;5489673;26;20270;-83
2024/04/14 08:28:21;;;;;;;2.47;1.33;;;24.90;92.90;;;;;;5488474;26;20325;-83
2024/04/14 08:30:47;;;;;;;0.80;0.80;;;24.90;92.40;;;;;;5489339;26;20214;-83
2024/04/14 08:33:15;;;;;;;1.00;1.00;;;25.00;92.90;;;;;;5489668;26;20249;-83
2024/04/14 08:35:41;;;;;;;0.80;0.80;;;25.00;92.50;;;;;;5488437;26;20675;-83
2024/04/14 08:38:13;;;;;;;1.33;0.95;;;25.10;93.00;;;;;;5488815;26;20283;-83
2024/04/14 08:40:39;;;;;;;0.88;0.88;;;25.10;93.00;;;;;;5489509;26;20246;-83
2024/04/14 08:43:07;;;;;;;0.80;0.80;;;25.30;92.90;;;;;;5490440;26;20222;-83
2024/04/14 08:45:34;;;;;;;0.70;0.70;;;25.40;92.90;;;;;;5489554;26;20215;-83
2024/04/14 08:48:03;;;;;;;3.03;1.00;;;25.60;91.80;;;;;;5489564;26;20230;-83
2024/04/14 08:50:29;;;;;;;0.90;0.90;;;25.70;91.50;;;;;;5491388;26;20260;-83
2024/04/14 08:52:58;;;;;;;0.98;0.90;;;26.00;91.90;;;;;;5489427;26;20222;-83
2024/04/14 08:55:27;;;;;;;1.13;1.00;;;26.30;91.10;;;;;;5490107;26;20300;-82
2024/04/14 08:57:56;;;;;;;1.00;1.00;;;26.70;89.90;;;;;;5490351;26;20291;-83
2024/04/14 09:00:23;;;;;;;1.00;1.00;;;26.90;89.80;;;;;;5490020;26;20347;-83
2024/04/14 09:02:51;;;;;;;0.90;0.90;;;27.30;90.10;;;;;;5490032;26;20214;-83
2024/04/14 09:05:20;;;;;;;1.10;0.82;;;27.80;89.40;;;;;;5488946;26;20266;-83
2024/04/14 09:07:56;;;;;;;0.90;0.90;;;28.00;86.90;;;;;;5487941;26;20230;-83
2024/04/14 09:10:22;;;;;;;1.10;1.00;;;28.40;85.50;;;;;;5487256;26;20207;-83
2024/04/14 09:12:53;;;;;;;1.00;1.00;;;28.30;84.00;;;;;;5487281;26;20203;-83
2024/04/14 09:15:19;;;;;;;0.88;0.88;;;28.10;84.60;;;;;;5487063;26;20233;-83
2024/04/14 09:17:47;;;;;;;1.00;1.00;;;27.90;85.10;;;;;;5487870;26;20222;-83
2024/04/14 09:20:13;;;;;;;0.80;0.80;;;27.70;83.80;;;;;;5487137;26;20255;-83
2024/04/14 09:22:42;;;;;;;0.70;0.70;;;27.60;83.50;;;;;;5487532;26;20317;-83
2024/04/14 09:25:08;;;;;;;1.00;0.95;;;27.50;84.90;;;;;;5488218;26;20691;-83
2024/04/14 09:27:36;;;;;;;1.15;0.90;;;27.40;86.50;;;;;;5486601;26;20789;-83
2024/04/14 09:30:13;;;;;;;1.23;1.13;;;27.30;86.40;;;;;;5486517;26;20347;-83
2024/04/14 09:32:42;;;;;;;1.98;0.90;;;27.10;86.60;;;;;;5486502;26;20175;-83
2024/04/14 09:35:09;;;;;;;2.13;1.02;;;27.00;87.30;;;;;;5485515;26;20270;-83
2024/04/14 09:37:37;;;;;;;0.95;0.95;;;27.00;87.10;;;;;;5486744;26;20791;-83
2024/04/14 09:40:06;;;;;;;0.80;0.80;;;26.90;88.90;;;;;;5485609;26;20215;-83
2024/04/14 09:42:35;;;;;;;1.02;0.82;;;26.90;87.60;;;;;;5484420;26;20282;-83
2024/04/14 09:45:02;;;;;;;1.10;0.80;;;26.90;87.40;;;;;;5485803;26;20351;-83
2024/04/14 09:47:33;;;;;;;2.10;1.33;;;27.00;86.10;;;;;;5485535;26;20230;-83
2024/04/14 09:50:00;;;;;;;1.05;0.95;;;27.00;86.60;;;;;;5485698;26;20218;-83
2024/04/14 09:52:30;;;;;;;1.00;0.73;;;27.10;89.60;;;;;;5490367;26;20222;-82
2024/04/14 09:55:00;;;;;;;4.28;1.00;;;27.10;86.00;;;;;;5487741;26;20270;-83
2024/04/14 09:57:26;;;;;;;1.20;1.20;;;27.10;85.70;;;;;;5488162;26;20605;-83
2024/04/14 09:59:55;;;;;;;1.50;0.98;;;27.10;86.70;;;;;;5488456;26;20318;-83
2024/04/14 10:02:25;;;;;;;0.90;0.90;;;27.20;87.50;;;;;;5488914;26;20213;-83
2024/04/14 10:04:57;;;;;;;1.00;1.00;;;27.30;86.80;;;;;;5488520;26;20245;-83
2024/04/14 10:07:23;;;;;;;1.48;1.38;;;27.40;85.10;;;;;;5485656;26;20274;-83
2024/04/14 10:09:52;;;;;;;0.95;0.95;;;27.50;83.50;;;;;;5488262;26;20321;-81
2024/04/14 10:12:21;;;;;;;0.80;0.80;;;27.60;84.00;;;;;;5489810;26;20210;-83
2024/04/14 10:14:47;;;;;;;1.00;1.00;;;27.70;84.30;;;;;;5489260;26;20632;-84
2024/04/14 10:17:17;;;;;;;1.10;1.10;;;28.00;83.40;;;;;;5486788;26;20227;-84
2024/04/14 10:20:00;;;;;;;1.38;1.00;;;28.20;83.70;;;;;;5485140;26;20219;-83
2024/04/14 10:22:32;;;;;;;1.05;1.02;;;28.50;83.20;;;;;;5484227;26;20258;-83
2024/04/14 10:24:59;;;;;;;1.23;0.80;;;28.60;81.40;;;;;;5484578;26;20257;-83
2024/04/14 10:27:27;;;;;;;0.90;0.90;;;28.50;78.90;;;;;;5484949;26;20329;-83
2024/04/14 10:29:57;;;;;;;0.85;0.85;;;28.50;79.30;;;;;;5485727;26;20260;-83
2024/04/14 10:32:25;;;;;;;1.00;0.90;;;28.80;81.30;;;;;;5485183;26;20221;-83
2024/04/14 10:34:51;;;;;;;0.93;0.93;;;29.20;79.80;;;;;;5484476;26;20223;-83
2024/04/14 10:37:27;;;;;;;1.20;1.10;;;29.60;78.90;;;;;;5484829;26;20223;-83
2024/04/14 10:39:54;;;;;;;1.23;1.13;;;29.80;76.60;;;;;;5485315;26;20181;-83
2024/04/14 10:42:23;;;;;;;1.10;1.00;;;30.00;73.40;;;;;;5484891;26;20611;-83
2024/04/14 10:44:49;;;;;;;1.00;1.00;;;30.70;74.80;;;;;;5485294;26;20433;-83
2024/04/14 10:47:19;;;;;;;0.77;0.77;;;31.40;72.60;;;;;;5484341;26;20231;-83
2024/04/14 10:49:46;;;;;;;0.90;0.90;;;32.00;67.90;;;;;;5486377;26;20217;-83
2024/04/14 10:52:14;;;;;;;2.15;0.82;;;32.30;67.40;;;;;;5485409;26;20275;-83
2024/04/14 10:54:44;;;;;;;1.10;1.10;;;32.40;67.70;;;;;;5485033;26;20274;-83
2024/04/14 10:57:13;;;;;;;1.15;1.02;;;32.00;65.60;;;;;;5486349;26;20274;-82
2024/04/14 10:59:39;;;;;;;1.08;0.80;;;31.60;64.70;;;;;;5485315;26;20275;-83
2024/04/14 11:02:08;;;;;;;1.00;1.00;;;31.10;62.10;;;;;;5485551;26;20314;-83
2024/04/14 11:04:35;;;;;;;1.25;1.15;;;30.70;65.20;;;;;;5485722;26;20263;-82
2024/04/14 11:07:04;;;;;;;0.88;0.88;;;30.20;67.70;;;;;;5485484;26;20225;-83
2024/04/14 11:09:31;;;;;;;1.13;0.98;;;29.60;68.80;;;;;;5485951;26;20228;-83
2024/04/14 11:12:04;;;;;;;0.80;0.80;;;29.10;69.30;;;;;;5485705;26;20267;-82
2024/04/14 11:14:30;;;;;;;1.20;0.90;;;28.70;69.60;;;;;;5489261;26;20208;-82
2024/04/14 11:16:59;;;;;;;0.90;0.80;;;28.30;70.10;;;;;;5489945;26;20227;-83
2024/04/14 11:19:25;;;;;;;1.25;1.00;;;28.00;72.40;;;;;;5492587;26;20298;-83
2024/04/14 11:21:53;;;;;;;1.92;0.90;;;27.80;73.30;;;;;;5496956;26;20261;-83
2024/04/14 11:24:20;;;;;;;0.88;0.88;;;27.70;71.60;;;;;;5496502;26;20727;-83
2024/04/14 11:26:49;;;;;;;0.77;0.77;;;27.50;74.30;;;;;;5489952;26;20283;-81
2024/04/14 11:29:17;;;;;;;0.80;0.80;;;27.40;73.90;;;;;;5487515;26;20301;-81
2024/04/14 11:31:46;;;;;;;1.25;0.90;;;27.30;75.80;;;;;;5487310;26;20648;-81
2024/04/14 11:34:12;;;;;;;1.20;0.85;;;27.30;77.40;;;;;;5486992;26;20210;-81
2024/04/14 11:36:43;;;;;;;2.13;1.30;;;27.30;75.80;;;;;;5487009;26;20582;-81
2024/04/14 11:39:10;;;;;;;0.93;0.93;;;27.20;76.90;;;;;;5486217;26;20312;-83
2024/04/14 11:41:39;;;;;;;1.20;1.10;;;27.20;77.10;;;;;;5487324;26;20767;-82
2024/04/14 11:44:06;;;;;;;1.05;1.00;;;27.20;75.70;;;;;;5487698;26;20273;-81
2024/04/14 11:46:37;;;;;;;1.30;1.20;;;27.10;75.60;;;;;;5486982;26;20271;-81
2024/04/14 11:49:03;;;;;;;0.82;0.82;;;27.00;77.70;;;;;;5488076;26;20523;-81
2024/04/14 11:51:32;;;;;;;1.70;1.60;;;27.00;78.90;;;;;;5488161;26;20318;-81
2024/04/14 11:53:57;;;;;;;2.33;1.10;;;27.00;76.60;;;;;;5486563;26;20230;-81
2024/04/14 11:56:26;;;;;;;2.90;0.95;;;26.90;77.30;;;;;;5488044;26;20303;-81
2024/04/14 11:58:52;;;;;;;0.98;0.98;;;26.80;77.20;;;;;;5487178;26;20293;-81
2024/04/14 12:01:20;;;;;;;0.73;0.73;;;26.80;79.20;;;;;;5487084;26;20229;-81
2024/04/14 12:03:48;;;;;;;0.90;0.90;;;26.80;79.20;;;;;;5488629;26;20270;-82
2024/04/14 12:06:17;;;;;;;2.83;0.93;;;26.80;77.40;;;;;;5487859;26;20257;-82
2024/04/14 12:08:43;;;;;;;1.20;1.10;;;26.80;78.40;;;;;;5491815;26;20250;-81
2024/04/14 12:11:11;;;;;;;0.82;0.80;;;26.80;78.20;;;;;;5493611;26;20257;-81
2024/04/14 12:13:38;;;;;;;0.90;0.85;;;26.70;78.40;;;;;;5493640;26;20283;-81
2024/04/14 12:16:07;;;;;;;1.02;1.02;;;26.60;76.20;;;;;;5493668;26;20210;-81
2024/04/14 12:18:32;;;;;;;1.15;0.95;;;26.50;74.40;;;;;;5488239;26;20723;-81
2024/04/14 12:21:03;;;;;;;0.82;0.82;;;26.50;74.70;;;;;;5485444;26;20256;-81
2024/04/14 12:23:29;;;;;;;1.23;0.90;;;26.40;71.70;;;;;;5485352;26;20348;-81
2024/04/14 12:25:57;;;;;;;0.70;0.70;;;26.40;74.30;;;;;;5484671;26;20226;-81
2024/04/14 12:28:23;;;;;;;0.70;0.70;;;26.40;72.20;;;;;;5484419;26;20304;-81
2024/04/14 12:30:53;;;;;;;1.00;0.90;;;26.40;73.00;;;;;;5484935;26;20632;-81
2024/04/14 12:33:19;;;;;;;0.85;0.85;;;26.40;74.60;;;;;;5485048;26;20270;-81
2024/04/14 12:35:47;;;;;;;2.15;0.90;;;26.40;72.40;;;;;;5484603;26;20316;-81
2024/04/14 12:38:16;;;;;;;2.25;0.90;;;26.30;73.80;;;;;;5485055;26;20234;-81
2024/04/14 12:40:44;;;;;;;0.70;0.70;;;26.20;75.40;;;;;;5483234;26;20290;-81
2024/04/14 12:43:10;;;;;;;0.88;0.88;;;26.20;73.90;;;;;;5484467;26;20714;-81
2024/04/14 12:45:41;;;;;;;0.68;0.68;;;26.10;73.10;;;;;;5484476;26;20218;-82
2024/04/14 12:48:15;;;;;;;1.35;0.98;;;26.10;72.40;;;;;;5484886;26;20222;-81
2024/04/14 12:50:43;;;;;;;1.15;0.80;;;25.90;71.70;;;;;;5485545;26;20171;-82